Strona główna
METAR-TAF:

METAR-TAF

Lotnisko :

Port lotniczy Pontianak-Supadio

Pontianak, Indonezja

Szerokość geograficzna: 00-09S, Długość geograficzna: 109-24E, wysokość: 3 m

Aktualna obserwacja pogody

Raport powstał 1 godzina i 7 minut temu, godzina 00:30 UTC
Wiatr 3 kt od wschodnio-północny wschód
Temperatura 26°C
Wilgotność 94%
Ciśnienie 1011 hPa
Widzialność: 3000 m
Rozproszone chmury na wysokości 1200 ft
dym

METAR: WIOO 260030Z 07003KT 3000 FU SCT012 26/25 Q1011 NOSIG

czas: 08:37 (01:37 UTC)


TAF: brakujący

Obserwacja i prognoza pogody dla ponad 4000 lotnisk (raport METAR i TAF).

Dostępne stacje oznaczono żółtymi i czerwonymi punktami na mapie.

Najedź kursorem aby zobaczyć nazwę stacji.

Kliknij aby zobaczyć obserwacje i prognozy pogody.

Aby zmienić mapę: kliknij na zielony przycisk z czarnym krzyżykiem, aby powiększyć; na zielony przycisk z myślnikiem, aby pomniejszyć; na zielone strzałki, aby przejść do map sąsiednich.


METAR-TAF: